Time;durP1;ratioP1;P1;durP2;ratioP2;P2;SDS_P1;SDS_P2;PMS_P1;PMS_P2;Temp;Humidity;BMP_temperature;BMP_pressure;BME280_temperature;BME280_humidity;BME280_pressure;Samples;Min_cycle;Max_cycle;Signal;HPM_P1;HPM_P2
2023/02/20 00:01:05;;;;;;;1.60;0.95;;;;;;;;;;4988655;28;20046;-77
2023/02/20 00:03:31;;;;;;;3.15;0.70;;;;;;;;;;4988433;28;20030;-77
2023/02/20 00:05:57;;;;;;;0.95;0.70;;;;;;;;;;4990472;28;20445;-77
2023/02/20 00:08:23;;;;;;;0.70;0.70;;;;;;;;;;4988210;28;20026;-77
2023/02/20 00:10:49;;;;;;;1.20;0.70;;;;;;;;;;4990019;28;20034;-77
2023/02/20 00:13:15;;;;;;;0.93;0.70;;;;;;;;;;4988253;28;20486;-77
2023/02/20 00:15:41;;;;;;;1.95;0.60;;;;;;;;;;4988746;28;20045;-77
2023/02/20 00:18:07;;;;;;;0.50;0.40;;;;;;;;;;4986010;28;20026;-77
2023/02/20 00:20:35;;;;;;;1.70;0.80;;;;;;;;;;4985277;28;20496;-77
2023/02/20 00:23:04;;;;;;;1.48;0.63;;;;;;;;;;4985532;28;20034;-77
2023/02/20 00:25:30;;;;;;;0.98;0.73;;;;;;;;;;4989365;28;20125;-77
2023/02/20 00:27:59;;;;;;;0.63;0.50;;;;;;;;;;4989533;28;20393;-77
2023/02/20 00:30:25;;;;;;;0.68;0.68;;;;;;;;;;4987650;28;20121;-78
2023/02/20 00:32:53;;;;;;;0.93;0.60;;;;;;;;;;4989863;28;20029;-77
2023/02/20 00:35:19;;;;;;;0.63;0.63;;;;;;;;;;4989017;28;20748;-76
2023/02/20 00:37:48;;;;;;;2.35;0.90;;;;;;;;;;4986404;28;20472;-76
2023/02/20 00:40:15;;;;;;;0.70;0.70;;;;;;;;;;4984981;28;20034;-77
2023/02/20 00:42:41;;;;;;;0.60;0.60;;;;;;;;;;4987680;28;20026;-76
2023/02/20 00:45:08;;;;;;;5.43;0.75;;;;;;;;;;4988138;28;20408;-77
2023/02/20 00:47:34;;;;;;;1.10;0.70;;;;;;;;;;4988389;28;20038;-77
2023/02/20 00:50:00;;;;;;;1.15;0.73;;;;;;;;;;4987452;28;20117;-77
2023/02/20 00:52:26;;;;;;;0.85;0.73;;;;;;;;;;4986298;28;20021;-77
2023/02/20 00:54:52;;;;;;;0.82;0.40;;;;;;;;;;4989056;28;20033;-77
2023/02/20 00:57:18;;;;;;;0.85;0.50;;;;;;;;;;4986649;28;20423;-77
2023/02/20 00:59:44;;;;;;;3.17;0.73;;;;;;;;;;4988726;28;20038;-77
2023/02/20 01:02:10;;;;;;;1.20;0.70;;;;;;;;;;4983670;28;20505;-77
2023/02/20 01:04:36;;;;;;;0.70;0.60;;;;;;;;;;4988322;28;20092;-77
2023/02/20 01:07:02;;;;;;;0.73;0.50;;;;;;;;;;4985621;28;20101;-77
2023/02/20 01:09:28;;;;;;;0.73;0.52;;;;;;;;;;4985174;28;20049;-77
2023/02/20 01:11:54;;;;;;;0.52;0.50;;;;;;;;;;4987066;28;20029;-77
2023/02/20 01:14:20;;;;;;;1.73;0.75;;;;;;;;;;4986509;28;20085;-78
2023/02/20 01:16:50;;;;;;;1.15;0.63;;;;;;;;;;4986778;28;20035;-77
2023/02/20 01:19:16;;;;;;;0.77;0.70;;;;;;;;;;4985926;28;20100;-77
2023/02/20 01:21:42;;;;;;;1.33;0.80;;;;;;;;;;4986882;28;20538;-77
2023/02/20 01:24:08;;;;;;;0.68;0.50;;;;;;;;;;4984160;28;20030;-77
2023/02/20 01:26:35;;;;;;;0.47;0.47;;;;;;;;;;4987092;28;20069;-77
2023/02/20 01:29:01;;;;;;;1.95;1.00;;;;;;;;;;4989095;28;20026;-76
2023/02/20 01:31:27;;;;;;;0.45;0.45;;;;;;;;;;4987054;28;20749;-77
2023/02/20 01:33:53;;;;;;;0.80;0.70;;;;;;;;;;4986500;28;20041;-78
2023/02/20 01:36:19;;;;;;;1.42;0.80;;;;;;;;;;4981558;28;20019;-78
2023/02/20 01:38:47;;;;;;;0.70;0.60;;;;;;;;;;4986435;28;20030;-78
2023/02/20 01:41:13;;;;;;;1.25;0.65;;;;;;;;;;4984935;28;20036;-77
2023/02/20 01:43:40;;;;;;;0.82;0.68;;;;;;;;;;4979585;28;20046;-77
2023/02/20 01:46:24;;;;;;;1.70;0.77;;;;;;;;;;4984829;28;20458;-77
2023/02/20 01:48:50;;;;;;;0.50;0.50;;;;;;;;;;4983591;28;20096;-78
2023/02/20 01:51:16;;;;;;;0.57;0.57;;;;;;;;;;4985961;28;20477;-77
2023/02/20 01:53:43;;;;;;;1.05;0.68;;;;;;;;;;4984993;28;20397;-77
2023/02/20 01:56:09;;;;;;;0.85;0.70;;;;;;;;;;4984727;28;20055;-77
2023/02/20 01:58:38;;;;;;;0.57;0.57;;;;;;;;;;4985691;28;20046;-78
2023/02/20 02:01:07;;;;;;;1.80;1.42;;;;;;;;;;4988121;28;20031;-77
2023/02/20 02:03:35;;;;;;;0.68;0.68;;;;;;;;;;4985714;28;20023;-77
2023/02/20 02:06:04;;;;;;;0.75;0.50;;;;;;;;;;4987957;28;20493;-77
2023/02/20 02:08:30;;;;;;;2.08;0.95;;;;;;;;;;4986692;28;20037;-77
2023/02/20 02:11:02;;;;;;;0.93;0.70;;;;;;;;;;4988164;28;20478;-77
2023/02/20 02:13:29;;;;;;;0.60;0.57;;;;;;;;;;4982853;28;20041;-77
2023/02/20 02:16:16;;;;;;;0.55;0.55;;;;;;;;;;4983971;28;20049;-78
2023/02/20 02:18:42;;;;;;;0.50;0.50;;;;;;;;;;4986154;28;20030;-77
2023/02/20 02:21:20;;;;;;;1.17;0.70;;;;;;;;;;4984814;28;20045;-78
2023/02/20 02:23:55;;;;;;;1.15;0.75;;;;;;;;;;4985517;28;20417;-78
2023/02/20 02:26:25;;;;;;;0.50;0.45;;;;;;;;;;4985201;28;20739;-77
2023/02/20 02:29:03;;;;;;;0.50;0.50;;;;;;;;;;4985352;28;20038;-78
2023/02/20 02:31:59;;;;;;;1.17;0.80;;;;;;;;;;4985832;28;20456;-77
2023/02/20 02:34:25;;;;;;;0.85;0.70;;;;;;;;;;4980150;28;20030;-77
2023/02/20 02:36:53;;;;;;;0.50;0.50;;;;;;;;;;4988160;28;20037;-78
2023/02/20 02:39:39;;;;;;;0.70;0.70;;;;;;;;;;4984502;28;20041;-77
2023/02/20 02:42:14;;;;;;;0.88;0.73;;;;;;;;;;4983351;28;20026;-77
2023/02/20 02:44:44;;;;;;;0.57;0.57;;;;;;;;;;4986087;28;20034;-77
2023/02/20 02:47:17;;;;;;;2.08;0.80;;;;;;;;;;4984904;28;20034;-77
2023/02/20 02:49:54;;;;;;;0.50;0.50;;;;;;;;;;4984772;28;20042;-78
2023/02/20 02:52:47;;;;;;;0.40;0.40;;;;;;;;;;4984596;28;20069;-77
2023/02/20 02:55:21;;;;;;;0.95;0.80;;;;;;;;;;4983101;28;20088;-78
2023/02/20 02:57:47;;;;;;;3.17;0.88;;;;;;;;;;4984872;28;20058;-78
2023/02/20 03:00:29;;;;;;;0.60;0.60;;;;;;;;;;4986054;28;20414;-78
2023/02/20 03:03:14;;;;;;;2.33;0.73;;;;;;;;;;4982204;28;20752;-78
2023/02/20 03:05:47;;;;;;;1.27;0.70;;;;;;;;;;4984940;28;20125;-77
2023/02/20 03:08:21;;;;;;;1.67;1.05;;;;;;;;;;4982109;28;20041;-77
2023/02/20 03:10:47;;;;;;;0.73;0.63;;;;;;;;;;4983794;28;20516;-77
2023/02/20 03:13:13;;;;;;;2.17;0.68;;;;;;;;;;4986859;28;20053;-77
2023/02/20 03:15:44;;;;;;;0.80;0.80;;;;;;;;;;4982657;28;20030;-77
2023/02/20 03:18:18;;;;;;;0.82;0.70;;;;;;;;;;4984734;28;20391;-77
2023/02/20 03:20:45;;;;;;;3.05;0.77;;;;;;;;;;4984263;28;20099;-77
2023/02/20 03:23:13;;;;;;;1.10;0.80;;;;;;;;;;4986365;28;20027;-78
2023/02/20 03:25:42;;;;;;;3.28;0.70;;;;;;;;;;4984466;28;20465;-77
2023/02/20 03:28:13;;;;;;;0.70;0.70;;;;;;;;;;4983467;28;20030;-78
2023/02/20 03:30:44;;;;;;;0.98;0.55;;;;;;;;;;4982592;28;20034;-78
2023/02/20 03:44:16;;;;;;;0.50;0.50;;;;;;;;;;4981737;28;20089;-78
2023/02/20 03:46:43;;;;;;;1.02;0.90;;;;;;;;;;4987149;28;20508;-78
2023/02/20 03:49:13;;;;;;;1.02;0.70;;;;;;;;;;4985898;28;20089;-77
2023/02/20 03:51:40;;;;;;;0.77;0.70;;;;;;;;;;4983558;28;20045;-78
2023/02/20 03:54:07;;;;;;;2.00;0.90;;;;;;;;;;4983258;28;20030;-78
2023/02/20 03:56:36;;;;;;;2.17;1.23;;;;;;;;;;4985865;28;20055;-78
2023/02/20 03:59:05;;;;;;;0.93;0.70;;;;;;;;;;4983044;28;20294;-78
2023/02/20 04:01:33;;;;;;;1.15;0.85;;;;;;;;;;4984349;28;20112;-78
2023/02/20 04:03:59;;;;;;;2.15;0.70;;;;;;;;;;4983287;28;20564;-78
2023/02/20 04:06:27;;;;;;;2.05;0.60;;;;;;;;;;4982533;28;20042;-78
2023/02/20 04:08:57;;;;;;;0.60;0.60;;;;;;;;;;4986678;28;20682;-77
2023/02/20 04:11:30;;;;;;;1.15;0.70;;;;;;;;;;4982101;28;20026;-78
2023/02/20 04:13:57;;;;;;;1.88;0.77;;;;;;;;;;4986662;28;20774;-78
2023/02/20 04:16:23;;;;;;;1.00;0.57;;;;;;;;;;4987230;28;20555;-79
2023/02/20 04:18:49;;;;;;;0.75;0.75;;;;;;;;;;4989505;28;20536;-78
2023/02/20 04:21:29;;;;;;;1.13;0.70;;;;;;;;;;4984079;28;20098;-80
2023/02/20 04:24:18;;;;;;;0.85;0.70;;;;;;;;;;4986068;28;20066;-79
2023/02/20 04:29:36;;;;;;;1.10;0.68;;;;;;;;;;4975639;28;20034;-78
2023/02/20 04:32:02;;;;;;;1.08;0.68;;;;;;;;;;4981322;28;20041;-79
2023/02/20 04:34:28;;;;;;;1.60;0.75;;;;;;;;;;4986547;28;20093;-75
2023/02/20 04:37:03;;;;;;;1.75;1.02;;;;;;;;;;4991252;28;20022;-79
2023/02/20 04:39:28;;;;;;;0.80;0.70;;;;;;;;;;4985351;28;20026;-81
2023/02/20 04:41:54;;;;;;;0.57;0.57;;;;;;;;;;4979646;28;20037;-80
2023/02/20 04:44:30;;;;;;;0.60;0.60;;;;;;;;;;4989046;28;20026;-81
2023/02/20 04:46:56;;;;;;;0.90;0.60;;;;;;;;;;4988203;28;20084;-80
2023/02/20 04:49:22;;;;;;;1.08;0.70;;;;;;;;;;4986828;28;20039;-80
2023/02/20 04:51:48;;;;;;;1.00;0.90;;;;;;;;;;4994961;28;20124;-80
2023/02/20 04:54:14;;;;;;;2.08;0.70;;;;;;;;;;4988397;28;20034;-80
2023/02/20 04:56:40;;;;;;;0.88;0.57;;;;;;;;;;4989611;28;20030;-80
2023/02/20 04:59:06;;;;;;;1.00;0.70;;;;;;;;;;4988464;28;20034;-80
2023/02/20 05:01:32;;;;;;;1.63;0.82;;;;;;;;;;4989401;28;20022;-80
2023/02/20 05:03:58;;;;;;;1.05;0.95;;;;;;;;;;4987542;28;20477;-80
2023/02/20 05:06:24;;;;;;;2.38;0.73;;;;;;;;;;4988088;28;20040;-79
2023/02/20 05:08:50;;;;;;;1.73;1.05;;;;;;;;;;4988724;28;20038;-80
2023/02/20 05:11:16;;;;;;;3.22;1.40;;;;;;;;;;4988960;28;20138;-80
2023/02/20 05:13:42;;;;;;;1.20;0.90;;;;;;;;;;4986196;28;20109;-80
2023/02/20 05:16:08;;;;;;;1.30;0.80;;;;;;;;;;4989487;28;20574;-80
2023/02/20 05:18:34;;;;;;;1.10;0.80;;;;;;;;;;4987630;28;20037;-80
2023/02/20 05:23:48;;;;;;;2.72;0.60;;;;;;;;;;4986165;28;20445;-80
2023/02/20 05:26:18;;;;;;;2.45;0.68;;;;;;;;;;4986921;28;20027;-80
2023/02/20 05:28:44;;;;;;;1.10;0.80;;;;;;;;;;4988518;28;20156;-80
2023/02/20 05:31:10;;;;;;;1.88;0.52;;;;;;;;;;4984698;28;20493;-80
2023/02/20 05:33:36;;;;;;;1.63;0.90;;;;;;;;;;4983140;28;20105;-80
2023/02/20 05:36:03;;;;;;;1.17;0.68;;;;;;;;;;4983249;28;20049;-80
2023/02/20 05:38:29;;;;;;;0.82;0.70;;;;;;;;;;4988612;28;20027;-80
2023/02/20 05:40:54;;;;;;;1.38;0.73;;;;;;;;;;4980104;28;20134;-80
2023/02/20 05:43:20;;;;;;;0.90;0.63;;;;;;;;;;4981170;28;20076;-85
2023/02/20 05:45:46;;;;;;;0.70;0.70;;;;;;;;;;4986865;28;20026;-80
2023/02/20 05:48:38;;;;;;;0.45;0.45;;;;;;;;;;4983900;28;20030;-79
2023/02/20 05:51:05;;;;;;;0.30;0.30;;;;;;;;;;4962769;28;20027;-80
2023/02/20 05:53:31;;;;;;;0.70;0.70;;;;;;;;;;4988729;28;20041;-78
2023/02/20 05:55:57;;;;;;;0.80;0.80;;;;;;;;;;4987828;28;20022;-78
2023/02/20 05:58:23;;;;;;;0.75;0.50;;;;;;;;;;4988159;28;20041;-78
2023/02/20 06:00:49;;;;;;;0.93;0.75;;;;;;;;;;4988402;28;20445;-78
2023/02/20 06:03:16;;;;;;;0.77;0.45;;;;;;;;;;4988685;28;20022;-79
2023/02/20 06:05:42;;;;;;;0.60;0.60;;;;;;;;;;4987199;28;20053;-79
2023/02/20 06:08:08;;;;;;;0.60;0.55;;;;;;;;;;4986884;28;20041;-74
2023/02/20 06:10:34;;;;;;;1.15;0.60;;;;;;;;;;4987003;28;20092;-81
2023/02/20 06:13:00;;;;;;;1.30;1.00;;;;;;;;;;4978569;28;20033;-80
2023/02/20 06:15:27;;;;;;;0.43;0.40;;;;;;;;;;4974983;28;20130;-80
2023/02/20 06:17:53;;;;;;;0.80;0.60;;;;;;;;;;4980978;28;20030;-80
2023/02/20 06:20:19;;;;;;;1.70;0.77;;;;;;;;;;4985046;28;20032;-82
2023/02/20 06:22:47;;;;;;;1.27;0.70;;;;;;;;;;4985105;28;20110;-81
2023/02/20 06:25:12;;;;;;;1.15;0.80;;;;;;;;;;4982780;28;20639;-82
2023/02/20 06:27:39;;;;;;;0.85;0.40;;;;;;;;;;4985980;28;20014;-82
2023/02/20 06:30:05;;;;;;;1.98;0.85;;;;;;;;;;4983295;28;20041;-80
2023/02/20 06:32:31;;;;;;;1.13;0.65;;;;;;;;;;4981274;28;20473;-80
2023/02/20 06:34:57;;;;;;;2.78;1.27;;;;;;;;;;4981494;28;20037;-81
2023/02/20 06:37:23;;;;;;;2.80;0.70;;;;;;;;;;4982311;28;20019;-81
2023/02/20 06:39:49;;;;;;;0.40;0.40;;;;;;;;;;4979927;28;20572;-80
2023/02/20 06:42:15;;;;;;;0.95;0.75;;;;;;;;;;4981631;28;20041;-80
2023/02/20 06:44:41;;;;;;;0.52;0.52;;;;;;;;;;4984299;28;20034;-80
2023/02/20 06:47:08;;;;;;;0.70;0.68;;;;;;;;;;4980014;28;20053;-81
2023/02/20 06:49:37;;;;;;;1.45;0.88;;;;;;;;;;4982219;28;20022;-80
2023/02/20 06:52:03;;;;;;;0.43;0.43;;;;;;;;;;4983293;28;20553;-81
2023/02/20 06:54:29;;;;;;;1.30;0.77;;;;;;;;;;4982933;28;20108;-81
2023/02/20 06:56:55;;;;;;;0.77;0.75;;;;;;;;;;4979150;28;20038;-73
2023/02/20 06:59:22;;;;;;;0.85;0.70;;;;;;;;;;4978368;28;20481;-73
2023/02/20 07:01:48;;;;;;;2.17;0.70;;;;;;;;;;4979890;28;20045;-80
2023/02/20 07:04:21;;;;;;;0.70;0.70;;;;;;;;;;4979104;28;20670;-78
2023/02/20 07:06:47;;;;;;;4.70;0.90;;;;;;;;;;4979250;28;20029;-78
2023/02/20 07:09:14;;;;;;;1.65;0.85;;;;;;;;;;4977858;28;20046;-78
2023/02/20 07:11:40;;;;;;;0.93;0.60;;;;;;;;;;4979468;28;20088;-77
2023/02/20 07:14:06;;;;;;;0.82;0.70;;;;;;;;;;4975659;28;20117;-81
2023/02/20 07:16:32;;;;;;;2.30;0.80;;;;;;;;;;4977003;28;20277;-79
2023/02/20 07:18:58;;;;;;;0.60;0.60;;;;;;;;;;4971902;28;20042;-86
2023/02/20 07:21:24;;;;;;;0.80;0.77;;;;;;;;;;4983506;28;20026;-85
2023/02/20 07:23:50;;;;;;;1.75;1.05;;;;;;;;;;4981420;28;20080;-87
2023/02/20 07:26:17;;;;;;;0.75;0.75;;;;;;;;;;4983358;28;20026;-86
2023/02/20 07:28:43;;;;;;;1.42;0.77;;;;;;;;;;4982915;28;20029;-86
2023/02/20 07:31:09;;;;;;;1.05;0.80;;;;;;;;;;4989641;28;20023;-86
2023/02/20 07:33:36;;;;;;;3.47;0.90;;;;;;;;;;4981374;28;20031;-87
2023/02/20 07:36:02;;;;;;;2.55;0.70;;;;;;;;;;4982592;28;20043;-86
2023/02/20 07:38:28;;;;;;;1.38;0.90;;;;;;;;;;4980957;28;20466;-84
2023/02/20 07:40:54;;;;;;;2.05;1.10;;;;;;;;;;4985760;28;20030;-87
2023/02/20 07:43:20;;;;;;;4.50;0.90;;;;;;;;;;4981345;28;20026;-86
2023/02/20 07:45:46;;;;;;;1.67;0.90;;;;;;;;;;4984708;28;20030;-86
2023/02/20 07:48:12;;;;;;;1.05;0.85;;;;;;;;;;4983527;28;20236;-86
2023/02/20 07:50:38;;;;;;;1.23;0.85;;;;;;;;;;4985567;28;20034;-86
2023/02/20 07:53:04;;;;;;;1.88;1.02;;;;;;;;;;4984388;28;20026;-86
2023/02/20 07:55:30;;;;;;;0.70;0.70;;;;;;;;;;4985286;28;20031;-86
2023/02/20 07:57:57;;;;;;;1.80;1.00;;;;;;;;;;4988231;28;20548;-85
2023/02/20 08:00:23;;;;;;;1.13;0.93;;;;;;;;;;4987005;28;20073;-86
2023/02/20 08:02:49;;;;;;;0.65;0.65;;;;;;;;;;4984578;28;21305;-86
2023/02/20 08:05:15;;;;;;;0.85;0.75;;;;;;;;;;4984751;28;20035;-86
2023/02/20 08:07:45;;;;;;;1.15;0.80;;;;;;;;;;4987271;28;20026;-86
2023/02/20 08:10:12;;;;;;;1.98;0.90;;;;;;;;;;4988268;28;20109;-86
2023/02/20 08:12:38;;;;;;;0.80;0.80;;;;;;;;;;4985406;28;20034;-86
2023/02/20 08:15:04;;;;;;;0.95;0.68;;;;;;;;;;4985432;28;20027;-86
2023/02/20 08:17:30;;;;;;;1.05;0.80;;;;;;;;;;4988015;28;20072;-86
2023/02/20 08:19:56;;;;;;;1.13;1.02;;;;;;;;;;4989088;28;20069;-87
2023/02/20 08:22:22;;;;;;;0.75;0.50;;;;;;;;;;4987820;28;20034;-86
2023/02/20 08:24:48;;;;;;;1.40;1.08;;;;;;;;;;4989390;28;20025;-86
2023/02/20 08:27:14;;;;;;;1.15;0.80;;;;;;;;;;4986309;28;20532;-85
2023/02/20 08:29:40;;;;;;;0.82;0.82;;;;;;;;;;4987960;28;20022;-86
2023/02/20 08:32:06;;;;;;;1.02;0.85;;;;;;;;;;4989364;28;21205;-86
2023/02/20 08:34:32;;;;;;;1.20;0.95;;;;;;;;;;4988851;28;20033;-84
2023/02/20 08:36:58;;;;;;;0.70;0.70;;;;;;;;;;4988782;28;20026;-86
2023/02/20 08:39:25;;;;;;;0.85;0.80;;;;;;;;;;4987551;28;20469;-87
2023/02/20 08:41:51;;;;;;;0.60;0.60;;;;;;;;;;4986190;28;20022;-86
2023/02/20 08:44:17;;;;;;;0.70;0.70;;;;;;;;;;4987299;28;20032;-86
2023/02/20 08:46:47;;;;;;;0.82;0.70;;;;;;;;;;4987141;28;20018;-87
2023/02/20 08:49:13;;;;;;;1.27;0.90;;;;;;;;;;4986245;28;20037;-73
2023/02/20 08:51:39;;;;;;;0.60;0.60;;;;;;;;;;4988428;28;20023;-74
2023/02/20 08:54:05;;;;;;;1.02;0.80;;;;;;;;;;4986399;28;20045;-74
2023/02/20 08:56:31;;;;;;;1.88;0.98;;;;;;;;;;4987097;28;20034;-73
2023/02/20 08:58:57;;;;;;;3.90;0.90;;;;;;;;;;4987212;28;20413;-74
2023/02/20 09:01:24;;;;;;;1.75;1.00;;;;;;;;;;4988430;28;20370;-73
2023/02/20 09:03:50;;;;;;;0.80;0.75;;;;;;;;;;4983584;28;20027;-74
2023/02/20 09:06:16;;;;;;;0.82;0.80;;;;;;;;;;4987038;28;20034;-73
2023/02/20 09:08:42;;;;;;;1.77;0.77;;;;;;;;;;4984224;28;20026;-74
2023/02/20 09:11:09;;;;;;;0.52;0.52;;;;;;;;;;4987802;28;20030;-73
2023/02/20 09:13:40;;;;;;;1.17;0.90;;;;;;;;;;4987562;28;20031;-73
2023/02/20 09:16:06;;;;;;;0.95;0.82;;;;;;;;;;4987041;28;20034;-73
2023/02/20 09:18:32;;;;;;;0.90;0.73;;;;;;;;;;4984721;28;20046;-73
2023/02/20 09:20:58;;;;;;;1.30;0.98;;;;;;;;;;4986112;28;20085;-73
2023/02/20 09:23:26;;;;;;;0.70;0.70;;;;;;;;;;4987333;28;20023;-74
2023/02/20 09:25:52;;;;;;;0.70;0.68;;;;;;;;;;4987487;28;20026;-74
2023/02/20 09:28:18;;;;;;;0.90;0.70;;;;;;;;;;4987395;28;21110;-74
2023/02/20 09:30:44;;;;;;;1.30;0.80;;;;;;;;;;4986726;28;20030;-74
2023/02/20 09:33:10;;;;;;;0.75;0.70;;;;;;;;;;4988207;28;20030;-74
2023/02/20 09:35:36;;;;;;;0.70;0.70;;;;;;;;;;4984661;28;20030;-74
2023/02/20 09:38:02;;;;;;;2.03;0.70;;;;;;;;;;4987162;28;20037;-74
2023/02/20 09:40:29;;;;;;;0.65;0.65;;;;;;;;;;4986409;28;20044;-74
2023/02/20 09:43:16;;;;;;;1.38;0.90;;;;;;;;;;4982957;28;20181;-74
2023/02/20 09:45:48;;;;;;;1.45;0.60;;;;;;;;;;4942593;28;20030;-74
2023/02/20 09:48:34;;;;;;;1.10;0.70;;;;;;;;;;4987047;28;20505;-74
2023/02/20 09:51:06;;;;;;;1.30;0.73;;;;;;;;;;4986288;28;20588;-73
2023/02/20 09:53:39;;;;;;;0.82;0.80;;;;;;;;;;4985512;28;20159;-74
2023/02/20 09:56:07;;;;;;;1.48;0.90;;;;;;;;;;4987246;28;20034;-75
2023/02/20 09:58:57;;;;;;;0.60;0.60;;;;;;;;;;4984977;28;21882;-78
2023/02/20 10:01:23;;;;;;;1.05;0.77;;;;;;;;;;4985098;28;20022;-77
2023/02/20 10:03:52;;;;;;;1.65;0.82;;;;;;;;;;4983916;28;20014;-78
2023/02/20 10:06:19;;;;;;;0.57;0.57;;;;;;;;;;4982852;28;20033;-80
2023/02/20 10:08:49;;;;;;;0.95;0.70;;;;;;;;;;4979157;28;20030;-79
2023/02/20 10:11:23;;;;;;;1.00;0.90;;;;;;;;;;4968905;28;20027;-80
2023/02/20 10:13:57;;;;;;;1.80;0.75;;;;;;;;;;4979239;28;20148;-81
2023/02/20 10:16:37;;;;;;;3.88;1.13;;;;;;;;;;4978535;28;20045;-81
2023/02/20 10:19:17;;;;;;;3.08;1.20;;;;;;;;;;4981587;28;20135;-80
2023/02/20 10:21:49;;;;;;;2.88;0.70;;;;;;;;;;4979802;28;20026;-82
2023/02/20 10:24:22;;;;;;;0.98;0.77;;;;;;;;;;4971903;28;20065;-75
2023/02/20 10:26:54;;;;;;;2.20;1.10;;;;;;;;;;4979381;28;20033;-76
2023/02/20 10:29:22;;;;;;;1.17;0.70;;;;;;;;;;4976604;28;20042;-74
2023/02/20 10:31:52;;;;;;;1.40;1.17;;;;;;;;;;4976271;28;20023;-74
2023/02/20 10:34:21;;;;;;;3.58;1.50;;;;;;;;;;4977273;28;20416;-76
2023/02/20 10:36:50;;;;;;;3.78;1.38;;;;;;;;;;4972880;28;20037;-76
2023/02/20 10:39:19;;;;;;;2.60;1.48;;;;;;;;;;4979739;28;20744;-75
2023/02/20 10:41:45;;;;;;;3.15;1.30;;;;;;;;;;4972193;28;20085;-76
2023/02/20 10:44:20;;;;;;;2.60;1.00;;;;;;;;;;4979957;28;20019;-73
2023/02/20 10:46:58;;;;;;;5.68;1.30;;;;;;;;;;4974283;28;20477;-75
2023/02/20 10:49:37;;;;;;;142.57;17.70;;;;;;;;;;4975030;28;20436;-75
2023/02/20 10:52:05;;;;;;;405.17;35.35;;;;;;;;;;4977774;28;20038;-76
2023/02/20 10:54:35;;;;;;;143.95;10.98;;;;;;;;;;4977288;28;20042;-75
2023/02/20 10:57:05;;;;;;;131.20;13.43;;;;;;;;;;4974191;28;20109;-75
2023/02/20 10:59:44;;;;;;;88.88;9.93;;;;;;;;;;4976694;28;20034;-75
2023/02/20 11:02:17;;;;;;;55.10;7.95;;;;;;;;;;4972832;28;20735;-75
2023/02/20 11:04:50;;;;;;;62.72;6.90;;;;;;;;;;4980085;28;20401;-75
2023/02/20 11:07:21;;;;;;;56.92;6.32;;;;;;;;;;4975219;28;20061;-75
2023/02/20 11:09:47;;;;;;;69.50;6.25;;;;;;;;;;4975625;28;20034;-75
2023/02/20 11:12:27;;;;;;;47.55;5.57;;;;;;;;;;4976600;28;20046;-75
2023/02/20 11:14:55;;;;;;;45.40;5.10;;;;;;;;;;4979162;28;20477;-75
2023/02/20 11:17:26;;;;;;;40.63;4.05;;;;;;;;;;4979466;28;20058;-75
2023/02/20 11:19:54;;;;;;;29.27;3.47;;;;;;;;;;4973302;28;20031;-75
2023/02/20 11:22:38;;;;;;;30.40;3.92;;;;;;;;;;4974214;28;20026;-75
2023/02/20 11:25:14;;;;;;;19.38;3.95;;;;;;;;;;4982157;28;20030;-75
2023/02/20 11:27:40;;;;;;;29.98;3.53;;;;;;;;;;4982405;28;20461;-75
2023/02/20 11:30:26;;;;;;;32.70;3.20;;;;;;;;;;4981471;28;20500;-74
2023/02/20 11:33:01;;;;;;;15.68;3.30;;;;;;;;;;4968899;28;20042;-75
2023/02/20 11:35:31;;;;;;;27.15;3.47;;;;;;;;;;4976443;28;20050;-75
2023/02/20 11:38:16;;;;;;;16.48;4.28;;;;;;;;;;4985657;28;20085;-75
2023/02/20 11:40:42;;;;;;;22.30;4.28;;;;;;;;;;4988852;28;20030;-74
2023/02/20 11:43:10;;;;;;;16.00;3.10;;;;;;;;;;4988640;28;20034;-75
2023/02/20 11:45:36;;;;;;;15.15;2.53;;;;;;;;;;4985780;28;20030;-74
2023/02/20 11:48:12;;;;;;;15.32;3.15;;;;;;;;;;4981552;28;20018;-75
2023/02/20 11:50:41;;;;;;;7.88;2.45;;;;;;;;;;4980491;28;20080;-75
2023/02/20 11:53:16;;;;;;;33.65;3.03;;;;;;;;;;4982136;28;20389;-75
2023/02/20 11:55:42;;;;;;;18.60;2.75;;;;;;;;;;4983954;28;20036;-74
2023/02/20 11:58:20;;;;;;;14.57;3.33;;;;;;;;;;4978894;28;20035;-74
2023/02/20 12:00:47;;;;;;;12.60;2.33;;;;;;;;;;4980353;28;20035;-74
2023/02/20 12:03:14;;;;;;;12.68;3.53;;;;;;;;;;4981505;28;20050;-74
2023/02/20 12:05:41;;;;;;;11.23;2.08;;;;;;;;;;4982217;28;20054;-74
2023/02/20 12:08:26;;;;;;;12.95;2.13;;;;;;;;;;4981792;28;20932;-74
2023/02/20 12:10:53;;;;;;;7.82;2.70;;;;;;;;;;4978503;28;20117;-74
2023/02/20 12:13:20;;;;;;;10.18;1.98;;;;;;;;;;4977580;28;20058;-74
2023/02/20 12:15:50;;;;;;;23.25;3.05;;;;;;;;;;4979577;28;20048;-73
2023/02/20 12:18:26;;;;;;;10.65;2.55;;;;;;;;;;4980727;28;20069;-74
2023/02/20 12:21:01;;;;;;;12.40;2.03;;;;;;;;;;4983688;28;20034;-73
2023/02/20 12:23:35;;;;;;;11.82;2.13;;;;;;;;;;4979995;28;20026;-73
2023/02/20 12:26:08;;;;;;;15.52;2.38;;;;;;;;;;4980055;28;20197;-73
2023/02/20 12:28:52;;;;;;;8.70;1.70;;;;;;;;;;4985127;28;20404;-75
2023/02/20 12:31:37;;;;;;;12.82;1.70;;;;;;;;;;4986596;28;20027;-75
2023/02/20 12:34:14;;;;;;;12.35;2.92;;;;;;;;;;4972564;28;20018;-77
2023/02/20 12:36:47;;;;;;;11.43;1.95;;;;;;;;;;4978008;28;20109;-77
2023/02/20 12:39:13;;;;;;;5.75;1.33;;;;;;;;;;4982556;28;20048;-77
2023/02/20 12:41:51;;;;;;;12.77;2.80;;;;;;;;;;4980486;28;20392;-77
2023/02/20 12:44:37;;;;;;;5.18;1.80;;;;;;;;;;4980364;28;20036;-77
2023/02/20 12:47:29;;;;;;;8.32;2.53;;;;;;;;;;4983332;28;20088;-79
2023/02/20 12:49:55;;;;;;;11.88;1.85;;;;;;;;;;4983512;28;20128;-78
2023/02/20 12:52:39;;;;;;;3.53;1.80;;;;;;;;;;4980380;28;20033;-76
2023/02/20 12:55:15;;;;;;;4.97;2.13;;;;;;;;;;4980931;28;20428;-77
2023/02/20 12:57:44;;;;;;;3.47;2.40;;;;;;;;;;4979184;28;20034;-77
2023/02/20 13:00:22;;;;;;;6.65;1.88;;;;;;;;;;4979095;28;20042;-78
2023/02/20 13:02:49;;;;;;;13.68;2.90;;;;;;;;;;4985225;28;20080;-77
2023/02/20 13:05:18;;;;;;;2.05;1.33;;;;;;;;;;4984350;28;20050;-77
2023/02/20 13:07:51;;;;;;;2.80;2.00;;;;;;;;;;4978153;28;20049;-77
2023/02/20 13:10:20;;;;;;;7.88;1.98;;;;;;;;;;4981831;28;20499;-76
2023/02/20 13:12:47;;;;;;;4.38;1.88;;;;;;;;;;4977730;28;20037;-76
2023/02/20 13:15:25;;;;;;;5.97;2.05;;;;;;;;;;4972821;28;20069;-75
2023/02/20 13:17:50;;;;;;;5.57;1.75;;;;;;;;;;4981174;28;20032;-76
2023/02/20 13:20:21;;;;;;;4.75;1.30;;;;;;;;;;4980154;28;20915;-84
2023/02/20 13:23:01;;;;;;;6.93;1.67;;;;;;;;;;4981780;28;20069;-85
2023/02/20 13:25:33;;;;;;;8.07;2.03;;;;;;;;;;4985494;28;20424;-85
2023/02/20 13:28:00;;;;;;;8.32;1.83;;;;;;;;;;4983476;28;20046;-87
2023/02/20 13:30:27;;;;;;;6.88;2.25;;;;;;;;;;4983792;28;20076;-84
2023/02/20 13:33:11;;;;;;;4.85;2.15;;;;;;;;;;4980706;28;20477;-84
2023/02/20 13:35:40;;;;;;;4.75;1.33;;;;;;;;;;4981628;28;20991;-87
2023/02/20 13:38:09;;;;;;;2.92;1.60;;;;;;;;;;4983535;28;20444;-85
2023/02/20 13:40:36;;;;;;;5.72;2.53;;;;;;;;;;4980561;28;20026;-88
2023/02/20 13:43:14;;;;;;;4.43;1.75;;;;;;;;;;4982635;28;20073;-86
2023/02/20 13:45:44;;;;;;;5.88;1.42;;;;;;;;;;4981201;28;20477;-85
2023/02/20 13:48:17;;;;;;;2.42;1.80;;;;;;;;;;4979522;28;20035;-85
2023/02/20 13:50:43;;;;;;;3.83;1.45;;;;;;;;;;4982130;28;20038;-86
2023/02/20 13:53:09;;;;;;;4.10;1.15;;;;;;;;;;4982146;28;20037;-84
2023/02/20 13:55:36;;;;;;;3.17;1.90;;;;;;;;;;4982649;28;20041;-84
2023/02/20 13:58:20;;;;;;;2.95;1.20;;;;;;;;;;4977536;28;20358;-84
2023/02/20 14:00:46;;;;;;;2.10;1.33;;;;;;;;;;4978709;28;20959;-84
2023/02/20 14:03:13;;;;;;;5.40;1.63;;;;;;;;;;4984166;28;20385;-85
2023/02/20 14:05:39;;;;;;;7.82;1.70;;;;;;;;;;4977060;28;22471;-85
2023/02/20 14:08:06;;;;;;;2.72;1.58;;;;;;;;;;4977774;28;20408;-85
2023/02/20 14:10:31;;;;;;;5.93;1.90;;;;;;;;;;4980933;28;20398;-86
2023/02/20 14:13:06;;;;;;;2.60;1.25;;;;;;;;;;4982648;28;20024;-86
2023/02/20 14:15:33;;;;;;;3.40;1.90;;;;;;;;;;4980986;28;20037;-86
2023/02/20 14:17:59;;;;;;;1.23;1.02;;;;;;;;;;4977151;28;20053;-85
2023/02/20 14:20:34;;;;;;;2.47;1.67;;;;;;;;;;4981113;28;20057;-85
2023/02/20 14:23:07;;;;;;;2.45;1.73;;;;;;;;;;4981996;28;20038;-86
2023/02/20 14:25:33;;;;;;;3.17;1.60;;;;;;;;;;4983855;28;20050;-86
2023/02/20 14:28:07;;;;;;;1.92;1.08;;;;;;;;;;4979296;28;20026;-88
2023/02/20 14:30:33;;;;;;;2.38;1.42;;;;;;;;;;4984147;28;20027;-90
2023/02/20 14:33:00;;;;;;;1.58;1.13;;;;;;;;;;4979398;28;20022;-86
2023/02/20 14:35:35;;;;;;;1.85;1.13;;;;;;;;;;4978338;28;20229;-87
2023/02/20 14:38:10;;;;;;;1.50;1.17;;;;;;;;;;4982457;28;20026;-86
2023/02/20 14:40:38;;;;;;;1.60;1.38;;;;;;;;;;4976666;28;20026;-88
2023/02/20 14:43:09;;;;;;;2.83;1.08;;;;;;;;;;4979227;28;20041;-86
2023/02/20 14:45:35;;;;;;;2.90;1.65;;;;;;;;;;4977075;28;20077;-87
2023/02/20 14:48:01;;;;;;;1.63;1.13;;;;;;;;;;4979353;28;20038;-89
2023/02/20 14:50:29;;;;;;;1.83;1.52;;;;;;;;;;4975984;28;20113;-89
2023/02/20 14:53:11;;;;;;;2.10;1.13;;;;;;;;;;4983401;28;20054;-90
2023/02/20 14:55:37;;;;;;;1.45;1.20;;;;;;;;;;4977446;28;20030;-79
2023/02/20 14:58:07;;;;;;;2.92;1.52;;;;;;;;;;4982451;28;20034;-80
2023/02/20 15:00:34;;;;;;;3.08;1.30;;;;;;;;;;4979771;28;20073;-80
2023/02/20 15:03:00;;;;;;;4.07;1.08;;;;;;;;;;4990157;28;20034;-80
2023/02/20 15:05:29;;;;;;;3.20;1.17;;;;;;;;;;4986752;28;20054;-79
2023/02/20 15:08:01;;;;;;;2.85;1.08;;;;;;;;;;4986000;28;20030;-80
2023/02/20 15:10:35;;;;;;;2.95;1.33;;;;;;;;;;4980166;28;20022;-79